sensor_id;sensor_type;location;lat;lon;timestamp;temperature;humidity
14140;DHT22;7150;53.514;9.988;2022-07-29T00:00:38;22.00;59.80
14140;DHT22;7150;53.514;9.988;2022-07-29T00:03:03;22.00;59.90
14140;DHT22;7150;53.514;9.988;2022-07-29T00:05:29;22.00;60.10
14140;DHT22;7150;53.514;9.988;2022-07-29T00:07:54;21.90;60.10
14140;DHT22;7150;53.514;9.988;2022-07-29T00:10:20;21.90;60.30
14140;DHT22;7150;53.514;9.988;2022-07-29T00:12:46;21.80;60.40
14140;DHT22;7150;53.514;9.988;2022-07-29T00:15:11;21.80;60.60
14140;DHT22;7150;53.514;9.988;2022-07-29T00:17:37;21.80;60.70
14140;DHT22;7150;53.514;9.988;2022-07-29T00:20:03;21.70;60.70
14140;DHT22;7150;53.514;9.988;2022-07-29T00:22:29;21.80;61.00
14140;DHT22;7150;53.514;9.988;2022-07-29T00:24:55;21.80;61.00
14140;DHT22;7150;53.514;9.988;2022-07-29T00:27:20;21.80;60.90
14140;DHT22;7150;53.514;9.988;2022-07-29T00:29:46;21.80;60.90
14140;DHT22;7150;53.514;9.988;2022-07-29T00:32:11;21.80;60.90
14140;DHT22;7150;53.514;9.988;2022-07-29T00:34:37;21.70;60.80
14140;DHT22;7150;53.514;9.988;2022-07-29T00:37:21;21.70;60.90
14140;DHT22;7150;53.514;9.988;2022-07-29T00:39:47;21.70;61.00
14140;DHT22;7150;53.514;9.988;2022-07-29T00:42:12;21.60;60.80
14140;DHT22;7150;53.514;9.988;2022-07-29T00:44:39;21.60;60.90
14140;DHT22;7150;53.514;9.988;2022-07-29T00:47:05;21.60;60.80
14140;DHT22;7150;53.514;9.988;2022-07-29T00:49:31;21.50;60.60
14140;DHT22;7150;53.514;9.988;2022-07-29T00:51:57;21.60;61.40
14140;DHT22;7150;53.514;9.988;2022-07-29T00:54:22;21.60;60.70
14140;DHT22;7150;53.514;9.988;2022-07-29T00:56:49;21.60;60.60
14140;DHT22;7150;53.514;9.988;2022-07-29T00:59:14;21.60;60.50
14140;DHT22;7150;53.514;9.988;2022-07-29T01:01:40;21.60;60.30
14140;DHT22;7150;53.514;9.988;2022-07-29T01:04:06;21.60;60.40
14140;DHT22;7150;53.514;9.988;2022-07-29T01:06:32;21.50;60.50
14140;DHT22;7150;53.514;9.988;2022-07-29T01:08:59;21.60;60.60
14140;DHT22;7150;53.514;9.988;2022-07-29T01:11:25;21.60;60.60
14140;DHT22;7150;53.514;9.988;2022-07-29T01:13:51;21.60;60.60
14140;DHT22;7150;53.514;9.988;2022-07-29T01:16:31;21.60;60.70
14140;DHT22;7150;53.514;9.988;2022-07-29T01:19:12;21.60;60.80
14140;DHT22;7150;53.514;9.988;2022-07-29T01:21:55;21.50;60.80
14140;DHT22;7150;53.514;9.988;2022-07-29T01:29:49;21.50;61.30
14140;DHT22;7150;53.514;9.988;2022-07-29T01:32:19;21.50;61.30
14140;DHT22;7150;53.514;9.988;2022-07-29T01:34:59;21.50;61.30
14140;DHT22;7150;53.514;9.988;2022-07-29T01:39:59;21.50;61.30
14140;DHT22;7150;53.514;9.988;2022-07-29T01:42:28;21.50;61.30
14140;DHT22;7150;53.514;9.988;2022-07-29T01:45:10;21.50;61.20
14140;DHT22;7150;53.514;9.988;2022-07-29T01:47:54;21.50;61.10
14140;DHT22;7150;53.514;9.988;2022-07-29T01:50:25;21.50;61.20
14140;DHT22;7150;53.514;9.988;2022-07-29T01:52:57;21.40;60.90
14140;DHT22;7150;53.514;9.988;2022-07-29T01:55:28;21.50;61.20
14140;DHT22;7150;53.514;9.988;2022-07-29T01:57:56;21.50;61.30
14140;DHT22;7150;53.514;9.988;2022-07-29T02:00:23;21.40;61.20
14140;DHT22;7150;53.514;9.988;2022-07-29T02:02:50;21.40;61.30
14140;DHT22;7150;53.514;9.988;2022-07-29T02:05:21;21.50;61.30
14140;DHT22;7150;53.514;9.988;2022-07-29T02:07:49;21.50;61.20
14140;DHT22;7150;53.514;9.988;2022-07-29T02:10:18;21.50;61.20
14140;DHT22;7150;53.514;9.988;2022-07-29T02:12:47;21.40;61.30
14140;DHT22;7150;53.514;9.988;2022-07-29T02:15:14;21.40;61.30
14140;DHT22;7150;53.514;9.988;2022-07-29T02:17:50;21.40;61.30
14140;DHT22;7150;53.514;9.988;2022-07-29T02:20:17;21.40;61.20
14140;DHT22;7150;53.514;9.988;2022-07-29T02:22:44;21.40;61.30
14140;DHT22;7150;53.514;9.988;2022-07-29T02:25:11;21.40;61.30
14140;DHT22;7150;53.514;9.988;2022-07-29T02:27:38;21.40;61.30
14140;DHT22;7150;53.514;9.988;2022-07-29T02:30:06;21.50;61.40
14140;DHT22;7150;53.514;9.988;2022-07-29T02:32:34;21.50;61.30
14140;DHT22;7150;53.514;9.988;2022-07-29T02:35:01;21.50;61.30
14140;DHT22;7150;53.514;9.988;2022-07-29T02:37:27;21.50;61.40
14140;DHT22;7150;53.514;9.988;2022-07-29T02:39:55;21.50;61.50
14140;DHT22;7150;53.514;9.988;2022-07-29T02:42:23;21.40;61.50
14140;DHT22;7150;53.514;9.988;2022-07-29T02:44:49;21.40;61.50
14140;DHT22;7150;53.514;9.988;2022-07-29T02:47:27;21.40;61.60
14140;DHT22;7150;53.514;9.988;2022-07-29T02:50:20;21.40;61.80
14140;DHT22;7150;53.514;9.988;2022-07-29T02:52:57;21.40;61.90
14140;DHT22;7150;53.514;9.988;2022-07-29T02:55:33;21.30;62.00
14140;DHT22;7150;53.514;9.988;2022-07-29T02:58:15;21.30;61.90
14140;DHT22;7150;53.514;9.988;2022-07-29T03:00:46;21.30;62.20
14140;DHT22;7150;53.514;9.988;2022-07-29T03:03:15;21.30;62.20
14140;DHT22;7150;53.514;9.988;2022-07-29T03:05:41;21.30;62.20
14140;DHT22;7150;53.514;9.988;2022-07-29T03:08:09;21.30;61.90
14140;DHT22;7150;53.514;9.988;2022-07-29T03:10:37;21.30;62.30
14140;DHT22;7150;53.514;9.988;2022-07-29T03:13:05;21.30;62.20
14140;DHT22;7150;53.514;9.988;2022-07-29T03:15:31;21.30;62.30
14140;DHT22;7150;53.514;9.988;2022-07-29T03:17:58;21.30;62.30
14140;DHT22;7150;53.514;9.988;2022-07-29T03:20:25;21.30;62.40
14140;DHT22;7150;53.514;9.988;2022-07-29T03:22:50;21.30;62.50
14140;DHT22;7150;53.514;9.988;2022-07-29T03:25:18;21.30;62.50
14140;DHT22;7150;53.514;9.988;2022-07-29T03:27:44;21.30;62.70
14140;DHT22;7150;53.514;9.988;2022-07-29T03:30:11;21.30;62.80
14140;DHT22;7150;53.514;9.988;2022-07-29T03:32:37;21.30;62.70
14140;DHT22;7150;53.514;9.988;2022-07-29T03:35:04;21.30;62.60
14140;DHT22;7150;53.514;9.988;2022-07-29T03:37:29;21.30;62.80
14140;DHT22;7150;53.514;9.988;2022-07-29T03:39:57;21.30;62.90
14140;DHT22;7150;53.514;9.988;2022-07-29T03:42:25;21.20;63.00
14140;DHT22;7150;53.514;9.988;2022-07-29T03:44:52;21.20;63.00
14140;DHT22;7150;53.514;9.988;2022-07-29T03:47:23;21.20;63.00
14140;DHT22;7150;53.514;9.988;2022-07-29T03:49:52;21.20;62.90
14140;DHT22;7150;53.514;9.988;2022-07-29T03:52:19;21.20;63.20
14140;DHT22;7150;53.514;9.988;2022-07-29T03:54:45;21.20;63.20
14140;DHT22;7150;53.514;9.988;2022-07-29T03:57:11;21.20;63.40
14140;DHT22;7150;53.514;9.988;2022-07-29T03:59:38;21.10;63.30
14140;DHT22;7150;53.514;9.988;2022-07-29T04:02:04;21.10;63.10
14140;DHT22;7150;53.514;9.988;2022-07-29T04:04:34;21.10;63.40
14140;DHT22;7150;53.514;9.988;2022-07-29T04:07:00;21.10;63.50
14140;DHT22;7150;53.514;9.988;2022-07-29T04:09:25;21.10;63.60
14140;DHT22;7150;53.514;9.988;2022-07-29T04:11:51;21.10;63.70
14140;DHT22;7150;53.514;9.988;2022-07-29T04:14:17;21.10;63.80
14140;DHT22;7150;53.514;9.988;2022-07-29T04:16:42;21.10;64.60
14140;DHT22;7150;53.514;9.988;2022-07-29T04:19:08;21.10;63.70
14140;DHT22;7150;53.514;9.988;2022-07-29T04:21:40;21.10;64.00
14140;DHT22;7150;53.514;9.988;2022-07-29T04:24:06;21.10;63.90
14140;DHT22;7150;53.514;9.988;2022-07-29T04:26:32;21.10;64.10
14140;DHT22;7150;53.514;9.988;2022-07-29T04:28:58;21.10;64.10
14140;DHT22;7150;53.514;9.988;2022-07-29T04:31:23;21.20;64.30
14140;DHT22;7150;53.514;9.988;2022-07-29T04:33:49;21.20;64.20
14140;DHT22;7150;53.514;9.988;2022-07-29T04:36:14;21.20;64.10
14140;DHT22;7150;53.514;9.988;2022-07-29T04:38:40;21.20;64.30
14140;DHT22;7150;53.514;9.988;2022-07-29T04:41:06;21.20;64.30
14140;DHT22;7150;53.514;9.988;2022-07-29T04:43:33;21.10;64.30
14140;DHT22;7150;53.514;9.988;2022-07-29T04:45:58;21.10;64.40
14140;DHT22;7150;53.514;9.988;2022-07-29T04:48:25;21.10;64.60
14140;DHT22;7150;53.514;9.988;2022-07-29T04:50:50;21.20;64.70
14140;DHT22;7150;53.514;9.988;2022-07-29T04:53:15;21.20;64.60
14140;DHT22;7150;53.514;9.988;2022-07-29T04:55:41;21.20;64.70
14140;DHT22;7150;53.514;9.988;2022-07-29T04:58:07;21.20;64.60
14140;DHT22;7150;53.514;9.988;2022-07-29T05:00:33;21.20;64.40
14140;DHT22;7150;53.514;9.988;2022-07-29T05:02:58;21.30;64.50
14140;DHT22;7150;53.514;9.988;2022-07-29T05:05:24;21.30;64.70
14140;DHT22;7150;53.514;9.988;2022-07-29T05:07:49;21.30;64.80
14140;DHT22;7150;53.514;9.988;2022-07-29T05:10:15;21.30;64.70
14140;DHT22;7150;53.514;9.988;2022-07-29T05:12:40;21.30;64.90
14140;DHT22;7150;53.514;9.988;2022-07-29T05:15:06;21.40;65.00
14140;DHT22;7150;53.514;9.988;2022-07-29T05:17:32;21.40;64.80
14140;DHT22;7150;53.514;9.988;2022-07-29T05:19:58;21.40;64.90
14140;DHT22;7150;53.514;9.988;2022-07-29T05:22:23;21.40;65.00
14140;DHT22;7150;53.514;9.988;2022-07-29T05:24:49;21.50;65.10
14140;DHT22;7150;53.514;9.988;2022-07-29T05:27:14;21.50;64.70
14140;DHT22;7150;53.514;9.988;2022-07-29T05:29:39;21.50;64.90
14140;DHT22;7150;53.514;9.988;2022-07-29T05:32:05;21.50;64.90
14140;DHT22;7150;53.514;9.988;2022-07-29T05:34:31;21.60;64.90
14140;DHT22;7150;53.514;9.988;2022-07-29T05:36:57;21.60;64.70
14140;DHT22;7150;53.514;9.988;2022-07-29T05:39:23;21.70;65.10
14140;DHT22;7150;53.514;9.988;2022-07-29T05:41:48;21.70;65.00
14140;DHT22;7150;53.514;9.988;2022-07-29T05:44:14;21.70;65.10
14140;DHT22;7150;53.514;9.988;2022-07-29T05:46:40;21.70;65.00
14140;DHT22;7150;53.514;9.988;2022-07-29T05:49:05;21.70;65.00
14140;DHT22;7150;53.514;9.988;2022-07-29T05:51:32;21.80;65.20
14140;DHT22;7150;53.514;9.988;2022-07-29T05:53:57;21.80;65.10
14140;DHT22;7150;53.514;9.988;2022-07-29T05:56:24;21.80;65.00
14140;DHT22;7150;53.514;9.988;2022-07-29T05:58:50;21.90;65.10
14140;DHT22;7150;53.514;9.988;2022-07-29T06:01:15;22.00;65.80
14140;DHT22;7150;53.514;9.988;2022-07-29T06:03:41;22.00;64.90
14140;DHT22;7150;53.514;9.988;2022-07-29T06:06:07;22.20;65.10
14140;DHT22;7150;53.514;9.988;2022-07-29T06:08:33;22.20;65.00
14140;DHT22;7150;53.514;9.988;2022-07-29T06:10:59;22.20;64.70
14140;DHT22;7150;53.514;9.988;2022-07-29T06:13:25;22.30;64.90
14140;DHT22;7150;53.514;9.988;2022-07-29T06:15:51;22.30;64.60
14140;DHT22;7150;53.514;9.988;2022-07-29T06:18:16;22.30;64.20
14140;DHT22;7150;53.514;9.988;2022-07-29T06:20:42;22.40;64.70
14140;DHT22;7150;53.514;9.988;2022-07-29T06:23:07;22.40;64.60
14140;DHT22;7150;53.514;9.988;2022-07-29T06:25:33;22.40;64.60
14140;DHT22;7150;53.514;9.988;2022-07-29T06:28:00;22.60;64.80
14140;DHT22;7150;53.514;9.988;2022-07-29T06:30:26;22.50;64.70
14140;DHT22;7150;53.514;9.988;2022-07-29T06:32:52;22.60;64.60
14140;DHT22;7150;53.514;9.988;2022-07-29T06:35:17;22.60;64.70
14140;DHT22;7150;53.514;9.988;2022-07-29T06:37:43;22.60;64.50
14140;DHT22;7150;53.514;9.988;2022-07-29T06:40:09;22.70;64.50
14140;DHT22;7150;53.514;9.988;2022-07-29T06:42:53;22.60;65.20
14140;DHT22;7150;53.514;9.988;2022-07-29T06:45:19;22.60;64.50
14140;DHT22;7150;53.514;9.988;2022-07-29T06:47:45;22.70;64.50
14140;DHT22;7150;53.514;9.988;2022-07-29T06:50:10;22.70;64.50
14140;DHT22;7150;53.514;9.988;2022-07-29T06:52:38;22.80;64.50
14140;DHT22;7150;53.514;9.988;2022-07-29T06:55:04;22.80;64.50
14140;DHT22;7150;53.514;9.988;2022-07-29T06:57:30;22.80;64.50
14140;DHT22;7150;53.514;9.988;2022-07-29T06:59:58;22.80;64.60
14140;DHT22;7150;53.514;9.988;2022-07-29T07:02:24;22.80;64.70
14140;DHT22;7150;53.514;9.988;2022-07-29T07:04:50;22.80;64.70
14140;DHT22;7150;53.514;9.988;2022-07-29T07:07:15;22.80;64.70
14140;DHT22;7150;53.514;9.988;2022-07-29T07:09:41;22.90;64.70
14140;DHT22;7150;53.514;9.988;2022-07-29T07:12:07;22.90;64.70
14140;DHT22;7150;53.514;9.988;2022-07-29T07:14:33;22.90;64.70
14140;DHT22;7150;53.514;9.988;2022-07-29T07:16:59;22.90;64.80
14140;DHT22;7150;53.514;9.988;2022-07-29T07:19:28;22.90;64.80
14140;DHT22;7150;53.514;9.988;2022-07-29T07:21:54;22.90;64.70
14140;DHT22;7150;53.514;9.988;2022-07-29T07:24:19;23.00;65.00
14140;DHT22;7150;53.514;9.988;2022-07-29T07:26:45;22.90;64.80
14140;DHT22;7150;53.514;9.988;2022-07-29T07:29:11;23.00;65.10
14140;DHT22;7150;53.514;9.988;2022-07-29T07:31:37;23.00;65.10
14140;DHT22;7150;53.514;9.988;2022-07-29T07:34:03;23.00;65.00
14140;DHT22;7150;53.514;9.988;2022-07-29T07:36:28;23.00;65.10
14140;DHT22;7150;53.514;9.988;2022-07-29T07:38:54;23.00;64.90
14140;DHT22;7150;53.514;9.988;2022-07-29T07:41:20;23.10;65.20
14140;DHT22;7150;53.514;9.988;2022-07-29T07:43:46;23.10;65.10
14140;DHT22;7150;53.514;9.988;2022-07-29T07:46:11;23.10;65.10
14140;DHT22;7150;53.514;9.988;2022-07-29T07:48:37;23.10;65.00
14140;DHT22;7150;53.514;9.988;2022-07-29T07:51:03;23.20;65.00
14140;DHT22;7150;53.514;9.988;2022-07-29T07:53:28;23.20;65.10
14140;DHT22;7150;53.514;9.988;2022-07-29T07:55:55;23.30;65.00
14140;DHT22;7150;53.514;9.988;2022-07-29T07:58:20;23.30;65.00
14140;DHT22;7150;53.514;9.988;2022-07-29T08:00:46;23.30;64.90
14140;DHT22;7150;53.514;9.988;2022-07-29T08:03:12;23.30;64.90
14140;DHT22;7150;53.514;9.988;2022-07-29T08:05:39;23.30;64.80
14140;DHT22;7150;53.514;9.988;2022-07-29T08:08:05;23.40;65.00
14140;DHT22;7150;53.514;9.988;2022-07-29T08:10:31;23.50;65.00
14140;DHT22;7150;53.514;9.988;2022-07-29T08:13:29;23.50;65.00
14140;DHT22;7150;53.514;9.988;2022-07-29T08:15:56;23.60;65.00
14140;DHT22;7150;53.514;9.988;2022-07-29T08:18:23;23.60;65.00
14140;DHT22;7150;53.514;9.988;2022-07-29T08:20:49;23.60;65.60
14140;DHT22;7150;53.514;9.988;2022-07-29T08:23:15;23.70;64.90
14140;DHT22;7150;53.514;9.988;2022-07-29T08:25:40;23.70;64.70
14140;DHT22;7150;53.514;9.988;2022-07-29T08:28:07;23.80;64.70
14140;DHT22;7150;53.514;9.988;2022-07-29T08:30:33;23.80;64.70
14140;DHT22;7150;53.514;9.988;2022-07-29T08:32:59;23.90;64.70
14140;DHT22;7150;53.514;9.988;2022-07-29T08:35:24;23.90;64.50
14140;DHT22;7150;53.514;9.988;2022-07-29T08:37:51;24.00;64.60
14140;DHT22;7150;53.514;9.988;2022-07-29T08:40:17;24.00;64.50
14140;DHT22;7150;53.514;9.988;2022-07-29T08:42:43;24.00;64.50
14140;DHT22;7150;53.514;9.988;2022-07-29T08:45:09;24.00;64.40
14140;DHT22;7150;53.514;9.988;2022-07-29T08:47:35;24.10;64.30
14140;DHT22;7150;53.514;9.988;2022-07-29T08:50:06;24.10;64.30
14140;DHT22;7150;53.514;9.988;2022-07-29T08:52:33;24.10;64.30
14140;DHT22;7150;53.514;9.988;2022-07-29T08:54:59;24.20;64.50
14140;DHT22;7150;53.514;9.988;2022-07-29T08:57:25;24.20;64.30
14140;DHT22;7150;53.514;9.988;2022-07-29T08:59:52;24.20;64.20
14140;DHT22;7150;53.514;9.988;2022-07-29T09:02:20;24.30;64.60
14140;DHT22;7150;53.514;9.988;2022-07-29T09:04:47;24.30;64.40
14140;DHT22;7150;53.514;9.988;2022-07-29T09:07:16;24.40;64.40
14140;DHT22;7150;53.514;9.988;2022-07-29T09:09:42;24.40;64.50
14140;DHT22;7150;53.514;9.988;2022-07-29T09:12:09;24.50;64.30
14140;DHT22;7150;53.514;9.988;2022-07-29T09:14:37;24.50;64.30
14140;DHT22;7150;53.514;9.988;2022-07-29T09:17:02;24.60;64.20
14140;DHT22;7150;53.514;9.988;2022-07-29T09:19:30;24.60;64.00
14140;DHT22;7150;53.514;9.988;2022-07-29T09:21:58;24.70;63.80
14140;DHT22;7150;53.514;9.988;2022-07-29T09:24:25;24.70;63.60
14140;DHT22;7150;53.514;9.988;2022-07-29T09:26:51;24.70;63.60
14140;DHT22;7150;53.514;9.988;2022-07-29T09:29:23;24.80;63.50
14140;DHT22;7150;53.514;9.988;2022-07-29T09:31:52;24.80;63.40
14140;DHT22;7150;53.514;9.988;2022-07-29T09:34:28;24.80;63.30
14140;DHT22;7150;53.514;9.988;2022-07-29T09:36:56;24.90;63.30
14140;DHT22;7150;53.514;9.988;2022-07-29T09:39:37;24.90;63.30
14140;DHT22;7150;53.514;9.988;2022-07-29T09:42:05;24.90;63.20
14140;DHT22;7150;53.514;9.988;2022-07-29T09:44:45;24.90;63.20
14140;DHT22;7150;53.514;9.988;2022-07-29T09:47:11;25.00;63.20
14140;DHT22;7150;53.514;9.988;2022-07-29T09:52:16;25.10;63.00
14140;DHT22;7150;53.514;9.988;2022-07-29T09:54:42;25.00;62.80
14140;DHT22;7150;53.514;9.988;2022-07-29T09:57:09;25.10;62.90
14140;DHT22;7150;53.514;9.988;2022-07-29T09:59:59;25.10;62.90
14140;DHT22;7150;53.514;9.988;2022-07-29T10:02:33;25.20;62.80
14140;DHT22;7150;53.514;9.988;2022-07-29T10:05:00;25.20;62.70
14140;DHT22;7150;53.514;9.988;2022-07-29T10:07:28;25.20;62.80
14140;DHT22;7150;53.514;9.988;2022-07-29T10:10:07;25.20;62.50
14140;DHT22;7150;53.514;9.988;2022-07-29T10:12:33;25.30;62.30
14140;DHT22;7150;53.514;9.988;2022-07-29T10:15:01;25.20;61.80
14140;DHT22;7150;53.514;9.988;2022-07-29T10:17:28;25.30;62.00
14140;DHT22;7150;53.514;9.988;2022-07-29T10:19:54;25.30;62.00
14140;DHT22;7150;53.514;9.988;2022-07-29T10:22:20;25.30;61.90
14140;DHT22;7150;53.514;9.988;2022-07-29T10:24:48;25.30;61.80
14140;DHT22;7150;53.514;9.988;2022-07-29T10:27:14;25.30;61.90
14140;DHT22;7150;53.514;9.988;2022-07-29T10:29:39;25.30;62.00
14140;DHT22;7150;53.514;9.988;2022-07-29T10:32:24;25.30;61.90
14140;DHT22;7150;53.514;9.988;2022-07-29T10:35:09;25.40;61.90
14140;DHT22;7150;53.514;9.988;2022-07-29T10:40:28;25.40;61.60
14140;DHT22;7150;53.514;9.988;2022-07-29T10:43:19;25.50;61.70
14140;DHT22;7150;53.514;9.988;2022-07-29T10:45:48;25.50;61.50
14140;DHT22;7150;53.514;9.988;2022-07-29T10:48:15;25.60;61.40
14140;DHT22;7150;53.514;9.988;2022-07-29T10:53:18;25.70;61.00
14140;DHT22;7150;53.514;9.988;2022-07-29T10:55:44;25.80;61.00
14140;DHT22;7150;53.514;9.988;2022-07-29T10:58:23;25.90;61.00
14140;DHT22;7150;53.514;9.988;2022-07-29T11:00:53;25.90;60.60
14140;DHT22;7150;53.514;9.988;2022-07-29T11:03:45;26.00;60.40
14140;DHT22;7150;53.514;9.988;2022-07-29T11:06:12;26.10;60.30
14140;DHT22;7150;53.514;9.988;2022-07-29T11:08:38;26.10;60.20
14140;DHT22;7150;53.514;9.988;2022-07-29T11:16:16;26.20;59.60
14140;DHT22;7150;53.514;9.988;2022-07-29T11:21:35;26.30;59.40
14140;DHT22;7150;53.514;9.988;2022-07-29T11:24:32;26.30;59.30
14140;DHT22;7150;53.514;9.988;2022-07-29T11:27:10;26.40;59.30
14140;DHT22;7150;53.514;9.988;2022-07-29T11:29:59;26.40;59.00
14140;DHT22;7150;53.514;9.988;2022-07-29T11:32:39;26.40;58.90
14140;DHT22;7150;53.514;9.988;2022-07-29T11:35:18;26.50;58.80
14140;DHT22;7150;53.514;9.988;2022-07-29T11:49:02;26.70;58.40
14140;DHT22;7150;53.514;9.988;2022-07-29T11:51:28;26.80;58.20
14140;DHT22;7150;53.514;9.988;2022-07-29T11:53:53;26.90;58.10
14140;DHT22;7150;53.514;9.988;2022-07-29T11:56:21;27.00;57.80
14140;DHT22;7150;53.514;9.988;2022-07-29T11:58:48;27.10;57.40
14140;DHT22;7150;53.514;9.988;2022-07-29T12:01:17;27.20;57.00
14140;DHT22;7150;53.514;9.988;2022-07-29T12:03:42;27.30;56.60
14140;DHT22;7150;53.514;9.988;2022-07-29T12:06:11;27.40;56.30
14140;DHT22;7150;53.514;9.988;2022-07-29T12:08:42;27.50;56.20
14140;DHT22;7150;53.514;9.988;2022-07-29T12:11:18;27.60;56.10
14140;DHT22;7150;53.514;9.988;2022-07-29T12:13:44;27.60;55.80
14140;DHT22;7150;53.514;9.988;2022-07-29T12:16:09;27.80;55.50
14140;DHT22;7150;53.514;9.988;2022-07-29T12:18:35;28.30;54.90
14140;DHT22;7150;53.514;9.988;2022-07-29T12:21:01;28.70;54.40
14140;DHT22;7150;53.514;9.988;2022-07-29T12:23:31;29.00;53.80
14140;DHT22;7150;53.514;9.988;2022-07-29T12:25:58;29.30;53.30
14140;DHT22;7150;53.514;9.988;2022-07-29T12:28:23;29.30;53.10
14140;DHT22;7150;53.514;9.988;2022-07-29T12:30:50;29.30;52.70
14140;DHT22;7150;53.514;9.988;2022-07-29T12:33:18;29.20;52.80
14140;DHT22;7150;53.514;9.988;2022-07-29T12:35:48;29.10;52.80
14140;DHT22;7150;53.514;9.988;2022-07-29T12:38:14;28.90;52.80
14140;DHT22;7150;53.514;9.988;2022-07-29T12:40:40;28.80;52.90
14140;DHT22;7150;53.514;9.988;2022-07-29T12:43:17;28.90;53.10
14140;DHT22;7150;53.514;9.988;2022-07-29T12:45:53;28.90;53.00
14140;DHT22;7150;53.514;9.988;2022-07-29T12:48:38;29.00;52.80
14140;DHT22;7150;53.514;9.988;2022-07-29T12:51:05;29.30;52.50
14140;DHT22;7150;53.514;9.988;2022-07-29T12:53:31;29.80;51.90
14140;DHT22;7150;53.514;9.988;2022-07-29T12:55:58;30.30;51.20
14140;DHT22;7150;53.514;9.988;2022-07-29T12:58:34;30.70;50.70
14140;DHT22;7150;53.514;9.988;2022-07-29T13:03:53;30.90;50.00
14140;DHT22;7150;53.514;9.988;2022-07-29T13:06:41;30.80;49.90
14140;DHT22;7150;53.514;9.988;2022-07-29T13:09:18;30.70;50.00
14140;DHT22;7150;53.514;9.988;2022-07-29T13:11:52;30.50;49.80
14140;DHT22;7150;53.514;9.988;2022-07-29T13:17:07;30.10;49.70
14140;DHT22;7150;53.514;9.988;2022-07-29T13:21:59;29.80;49.40
14140;DHT22;7150;53.514;9.988;2022-07-29T13:24:25;29.70;49.40
14140;DHT22;7150;53.514;9.988;2022-07-29T13:26:50;29.60;49.40
14140;DHT22;7150;53.514;9.988;2022-07-29T13:29:17;29.50;49.60
14140;DHT22;7150;53.514;9.988;2022-07-29T13:31:42;29.50;49.60
14140;DHT22;7150;53.514;9.988;2022-07-29T13:34:08;29.50;49.70
14140;DHT22;7150;53.514;9.988;2022-07-29T13:36:33;29.40;49.60
14140;DHT22;7150;53.514;9.988;2022-07-29T13:38:59;29.40;49.50
14140;DHT22;7150;53.514;9.988;2022-07-29T13:41:26;29.40;49.20
14140;DHT22;7150;53.514;9.988;2022-07-29T13:43:51;29.40;49.20
14140;DHT22;7150;53.514;9.988;2022-07-29T13:46:18;29.30;49.10
14140;DHT22;7150;53.514;9.988;2022-07-29T13:48:43;29.30;49.00
14140;DHT22;7150;53.514;9.988;2022-07-29T13:51:08;29.20;48.80
14140;DHT22;7150;53.514;9.988;2022-07-29T13:53:34;29.20;49.00
14140;DHT22;7150;53.514;9.988;2022-07-29T13:55:59;29.10;49.00
14140;DHT22;7150;53.514;9.988;2022-07-29T13:58:25;29.10;49.20
14140;DHT22;7150;53.514;9.988;2022-07-29T14:00:51;29.10;49.40
14140;DHT22;7150;53.514;9.988;2022-07-29T14:03:17;29.10;49.50
14140;DHT22;7150;53.514;9.988;2022-07-29T14:05:42;29.10;49.80
14140;DHT22;7150;53.514;9.988;2022-07-29T14:08:08;29.10;50.30
14140;DHT22;7150;53.514;9.988;2022-07-29T14:10:33;29.10;51.40
14140;DHT22;7150;53.514;9.988;2022-07-29T14:12:59;29.10;52.10
14140;DHT22;7150;53.514;9.988;2022-07-29T14:15:24;29.10;52.70
14140;DHT22;7150;53.514;9.988;2022-07-29T14:17:50;29.10;53.10
14140;DHT22;7150;53.514;9.988;2022-07-29T14:20:15;29.10;53.40
14140;DHT22;7150;53.514;9.988;2022-07-29T14:22:41;29.20;53.80
14140;DHT22;7150;53.514;9.988;2022-07-29T14:25:08;29.20;53.90
14140;DHT22;7150;53.514;9.988;2022-07-29T14:27:34;29.20;54.20
14140;DHT22;7150;53.514;9.988;2022-07-29T14:29:59;29.40;54.40
14140;DHT22;7150;53.514;9.988;2022-07-29T14:32:25;29.80;54.50
14140;DHT22;7150;53.514;9.988;2022-07-29T14:34:50;31.00;53.80
14140;DHT22;7150;53.514;9.988;2022-07-29T14:37:16;32.20;52.20
14140;DHT22;7150;53.514;9.988;2022-07-29T14:39:41;33.80;50.70
14140;DHT22;7150;53.514;9.988;2022-07-29T14:42:07;35.50;48.50
14140;DHT22;7150;53.514;9.988;2022-07-29T14:44:33;36.60;46.40
14140;DHT22;7150;53.514;9.988;2022-07-29T14:46:59;36.90;45.50
14140;DHT22;7150;53.514;9.988;2022-07-29T14:49:28;36.70;45.50
14140;DHT22;7150;53.514;9.988;2022-07-29T14:51:54;36.70;44.70
14140;DHT22;7150;53.514;9.988;2022-07-29T14:54:19;36.80;45.20
14140;DHT22;7150;53.514;9.988;2022-07-29T14:56:45;36.60;45.00
14140;DHT22;7150;53.514;9.988;2022-07-29T14:59:11;36.30;45.20
14140;DHT22;7150;53.514;9.988;2022-07-29T15:01:37;36.50;45.30
14140;DHT22;7150;53.514;9.988;2022-07-29T15:04:03;37.30;45.20
14140;DHT22;7150;53.514;9.988;2022-07-29T15:06:28;37.90;43.70
14140;DHT22;7150;53.514;9.988;2022-07-29T15:08:54;38.60;43.20
14140;DHT22;7150;53.514;9.988;2022-07-29T15:11:19;39.20;42.40
14140;DHT22;7150;53.514;9.988;2022-07-29T15:13:45;39.70;41.50
14140;DHT22;7150;53.514;9.988;2022-07-29T15:16:10;40.40;40.90
14140;DHT22;7150;53.514;9.988;2022-07-29T15:18:36;41.50;39.80
14140;DHT22;7150;53.514;9.988;2022-07-29T15:21:03;42.30;38.50
14140;DHT22;7150;53.514;9.988;2022-07-29T15:23:29;42.60;37.80
14140;DHT22;7150;53.514;9.988;2022-07-29T15:25:55;42.20;37.70
14140;DHT22;7150;53.514;9.988;2022-07-29T15:28:20;41.20;38.40
14140;DHT22;7150;53.514;9.988;2022-07-29T15:30:46;40.00;39.40
14140;DHT22;7150;53.514;9.988;2022-07-29T15:33:12;38.90;40.50
14140;DHT22;7150;53.514;9.988;2022-07-29T15:35:38;37.90;41.50
14140;DHT22;7150;53.514;9.988;2022-07-29T15:38:04;37.00;42.20
14140;DHT22;7150;53.514;9.988;2022-07-29T15:40:30;36.60;42.70
14140;DHT22;7150;53.514;9.988;2022-07-29T15:42:55;36.50;42.80
14140;DHT22;7150;53.514;9.988;2022-07-29T15:45:21;36.50;42.50
14140;DHT22;7150;53.514;9.988;2022-07-29T15:47:47;36.60;42.40
14140;DHT22;7150;53.514;9.988;2022-07-29T15:50:12;36.60;42.40
14140;DHT22;7150;53.514;9.988;2022-07-29T15:52:42;36.80;42.20
14140;DHT22;7150;53.514;9.988;2022-07-29T15:55:08;36.90;42.10
14140;DHT22;7150;53.514;9.988;2022-07-29T15:57:34;37.20;42.10
14140;DHT22;7150;53.514;9.988;2022-07-29T15:59:59;38.00;41.40
14140;DHT22;7150;53.514;9.988;2022-07-29T16:02:25;38.50;40.80
14140;DHT22;7150;53.514;9.988;2022-07-29T16:04:50;38.40;40.70
14140;DHT22;7150;53.514;9.988;2022-07-29T16:07:16;37.90;41.00
14140;DHT22;7150;53.514;9.988;2022-07-29T16:09:43;37.10;41.60
14140;DHT22;7150;53.514;9.988;2022-07-29T16:12:08;36.40;42.40
14140;DHT22;7150;53.514;9.988;2022-07-29T16:14:34;35.60;43.00
14140;DHT22;7150;53.514;9.988;2022-07-29T16:17:00;34.90;43.90
14140;DHT22;7150;53.514;9.988;2022-07-29T16:19:28;34.40;44.90
14140;DHT22;7150;53.514;9.988;2022-07-29T16:21:54;33.70;45.60
14140;DHT22;7150;53.514;9.988;2022-07-29T16:24:19;33.20;46.30
14140;DHT22;7150;53.514;9.988;2022-07-29T16:26:45;32.80;47.00
14140;DHT22;7150;53.514;9.988;2022-07-29T16:29:10;32.40;47.50
14140;DHT22;7150;53.514;9.988;2022-07-29T16:31:36;32.10;48.10